sensor_id;sensor_type;location;lat;lon;timestamp;pressure;altitude;pressure_sealevel;temperature;humidity
62402;BME280;48440;51.224;22.506;2023-06-24T00:00:36;99054.84;;;22.20;81.48
62402;BME280;48440;51.224;22.506;2023-06-24T00:03:02;99045.75;;;22.20;81.38
62402;BME280;48440;51.224;22.506;2023-06-24T00:05:28;99050.34;;;22.16;81.43
62402;BME280;48440;51.224;22.506;2023-06-24T00:07:53;99051.13;;;22.16;81.63
62402;BME280;48440;51.224;22.506;2023-06-24T00:10:22;99050.59;;;22.23;81.24
62402;BME280;48440;51.224;22.506;2023-06-24T00:12:48;99050.88;;;22.30;79.90
62402;BME280;48440;51.224;22.506;2023-06-24T00:15:13;99058.50;;;22.33;79.40
62402;BME280;48440;51.224;22.506;2023-06-24T00:17:39;99065.66;;;22.34;78.90
62402;BME280;48440;51.224;22.506;2023-06-24T00:20:05;99072.31;;;22.33;78.37
62402;BME280;48440;51.224;22.506;2023-06-24T00:22:37;99076.22;;;22.32;78.11
62402;BME280;48440;51.224;22.506;2023-06-24T00:25:04;99082.44;;;22.29;77.83
62402;BME280;48440;51.224;22.506;2023-06-24T00:27:30;99089.28;;;22.23;77.82
62402;BME280;48440;51.224;22.506;2023-06-24T00:29:55;99102.97;;;22.19;77.71
62402;BME280;48440;51.224;22.506;2023-06-24T00:32:21;99105.75;;;22.19;77.07
62402;BME280;48440;51.224;22.506;2023-06-24T00:34:46;99108.97;;;22.21;77.18
62402;BME280;48440;51.224;22.506;2023-06-24T00:37:13;99120.84;;;22.22;76.55
62402;BME280;48440;51.224;22.506;2023-06-24T00:39:39;99114.03;;;22.19;76.18
62402;BME280;48440;51.224;22.506;2023-06-24T00:42:04;99126.69;;;22.20;76.14
62402;BME280;48440;51.224;22.506;2023-06-24T00:44:30;99126.88;;;22.15;75.85
62402;BME280;48440;51.224;22.506;2023-06-24T00:46:55;99132.00;;;22.05;75.69
62402;BME280;48440;51.224;22.506;2023-06-24T00:49:21;99134.44;;;21.97;75.56
62402;BME280;48440;51.224;22.506;2023-06-24T00:51:46;99145.22;;;21.90;75.16
62402;BME280;48440;51.224;22.506;2023-06-24T00:54:18;99147.34;;;21.85;74.59
62402;BME280;48440;51.224;22.506;2023-06-24T00:56:45;99152.94;;;21.76;73.24
62402;BME280;48440;51.224;22.506;2023-06-24T00:59:16;99153.44;;;21.70;72.41
62402;BME280;48440;51.224;22.506;2023-06-24T01:01:41;99150.03;;;21.64;71.92
62402;BME280;48440;51.224;22.506;2023-06-24T01:04:08;99148.75;;;21.61;71.92
62402;BME280;48440;51.224;22.506;2023-06-24T01:06:35;99145.66;;;21.63;72.40
62402;BME280;48440;51.224;22.506;2023-06-24T01:09:02;99139.34;;;21.62;71.47
62402;BME280;48440;51.224;22.506;2023-06-24T01:11:29;99140.94;;;21.63;72.50
62402;BME280;48440;51.224;22.506;2023-06-24T01:13:55;99144.50;;;21.73;72.31
62402;BME280;48440;51.224;22.506;2023-06-24T01:19:44;99147.97;;;21.90;71.50
62402;BME280;48440;51.224;22.506;2023-06-24T01:22:56;99149.59;;;21.91;70.99
62402;BME280;48440;51.224;22.506;2023-06-24T01:33:49;99144.28;;;21.40;70.18
62402;BME280;48440;51.224;22.506;2023-06-24T01:36:17;99162.31;;;21.37;70.65
62402;BME280;48440;51.224;22.506;2023-06-24T01:38:49;99155.03;;;21.32;70.11
62402;BME280;48440;51.224;22.506;2023-06-24T01:41:21;99153.13;;;21.24;69.91
62402;BME280;48440;51.224;22.506;2023-06-24T01:43:50;99155.41;;;21.22;70.70
62402;BME280;48440;51.224;22.506;2023-06-24T01:46:21;99155.53;;;21.17;69.31
62402;BME280;48440;51.224;22.506;2023-06-24T01:48:47;99153.75;;;21.13;69.98
62402;BME280;48440;51.224;22.506;2023-06-24T01:51:18;99150.03;;;21.09;70.17
62402;BME280;48440;51.224;22.506;2023-06-24T01:53:50;99152.63;;;21.05;69.94
62402;BME280;48440;51.224;22.506;2023-06-24T01:56:16;99161.25;;;21.04;70.40
62402;BME280;48440;51.224;22.506;2023-06-24T01:58:44;99160.44;;;21.03;70.33
62402;BME280;48440;51.224;22.506;2023-06-24T02:01:12;99164.34;;;21.02;70.18
62402;BME280;48440;51.224;22.506;2023-06-24T02:03:39;99161.56;;;21.02;70.27
62402;BME280;48440;51.224;22.506;2023-06-24T02:06:07;99164.66;;;21.00;69.69
62402;BME280;48440;51.224;22.506;2023-06-24T02:08:35;99168.72;;;21.03;70.31
62402;BME280;48440;51.224;22.506;2023-06-24T02:11:04;99167.72;;;21.08;70.18
62402;BME280;48440;51.224;22.506;2023-06-24T02:13:31;99170.78;;;21.06;69.26
62402;BME280;48440;51.224;22.506;2023-06-24T02:15:59;99169.97;;;21.06;69.69
62402;BME280;48440;51.224;22.506;2023-06-24T02:18:26;99168.84;;;21.07;70.07
62402;BME280;48440;51.224;22.506;2023-06-24T02:20:53;99167.22;;;21.06;69.09
62402;BME280;48440;51.224;22.506;2023-06-24T02:23:21;99174.38;;;21.07;69.28
62402;BME280;48440;51.224;22.506;2023-06-24T02:25:48;99172.94;;;21.00;68.97
62402;BME280;48440;51.224;22.506;2023-06-24T02:28:14;99181.03;;;20.97;68.93
62402;BME280;48440;51.224;22.506;2023-06-24T02:30:41;99179.25;;;20.92;68.92
62402;BME280;48440;51.224;22.506;2023-06-24T02:33:07;99184.59;;;20.89;68.72
62402;BME280;48440;51.224;22.506;2023-06-24T02:35:33;99186.22;;;20.81;68.82
62402;BME280;48440;51.224;22.506;2023-06-24T02:37:59;99185.75;;;20.79;68.83
62402;BME280;48440;51.224;22.506;2023-06-24T02:40:25;99189.50;;;20.75;68.79
62402;BME280;48440;51.224;22.506;2023-06-24T02:42:51;99197.09;;;20.69;68.66
62402;BME280;48440;51.224;22.506;2023-06-24T02:45:17;99193.88;;;20.67;68.41
62402;BME280;48440;51.224;22.506;2023-06-24T02:47:45;99198.88;;;20.65;68.37
62402;BME280;48440;51.224;22.506;2023-06-24T02:50:12;99203.75;;;20.59;68.83
62402;BME280;48440;51.224;22.506;2023-06-24T02:52:38;99207.94;;;20.57;68.79
62402;BME280;48440;51.224;22.506;2023-06-24T02:55:05;99202.28;;;20.53;69.10
62402;BME280;48440;51.224;22.506;2023-06-24T02:57:31;99203.06;;;20.54;69.11
62402;BME280;48440;51.224;22.506;2023-06-24T02:59:58;99207.13;;;20.56;68.37
62402;BME280;48440;51.224;22.506;2023-06-24T03:02:23;99211.84;;;20.56;68.56
62402;BME280;48440;51.224;22.506;2023-06-24T03:04:50;99219.63;;;20.54;68.22
62402;BME280;48440;51.224;22.506;2023-06-24T03:07:17;99219.63;;;20.54;68.57
62402;BME280;48440;51.224;22.506;2023-06-24T03:09:47;99213.28;;;20.53;68.73
62402;BME280;48440;51.224;22.506;2023-06-24T03:12:12;99221.56;;;20.53;68.49
62402;BME280;48440;51.224;22.506;2023-06-24T03:14:38;99225.31;;;20.49;68.04
62402;BME280;48440;51.224;22.506;2023-06-24T03:17:03;99214.47;;;20.52;68.52
62402;BME280;48440;51.224;22.506;2023-06-24T03:19:29;99220.75;;;20.53;68.03
62402;BME280;48440;51.224;22.506;2023-06-24T03:21:54;99217.69;;;20.54;68.34
62402;BME280;48440;51.224;22.506;2023-06-24T03:24:20;99218.97;;;20.57;68.29
62402;BME280;48440;51.224;22.506;2023-06-24T03:26:46;99221.09;;;20.60;67.46
62402;BME280;48440;51.224;22.506;2023-06-24T03:29:12;99230.50;;;20.59;67.60
62402;BME280;48440;51.224;22.506;2023-06-24T03:31:37;99231.00;;;20.61;67.73
62402;BME280;48440;51.224;22.506;2023-06-24T03:34:10;99228.53;;;20.59;67.81
62402;BME280;48440;51.224;22.506;2023-06-24T03:36:35;99237.94;;;20.58;67.26
62402;BME280;48440;51.224;22.506;2023-06-24T03:39:04;99235.34;;;20.53;67.06
62402;BME280;48440;51.224;22.506;2023-06-24T03:41:29;99242.66;;;20.49;67.19
62402;BME280;48440;51.224;22.506;2023-06-24T03:43:55;99241.50;;;20.42;67.42
62402;BME280;48440;51.224;22.506;2023-06-24T03:46:20;99245.06;;;20.42;67.63
62402;BME280;48440;51.224;22.506;2023-06-24T03:48:46;99247.81;;;20.42;67.45
62402;BME280;48440;51.224;22.506;2023-06-24T03:51:12;99248.78;;;20.38;67.54
62402;BME280;48440;51.224;22.506;2023-06-24T03:53:38;99249.88;;;20.37;67.67
62402;BME280;48440;51.224;22.506;2023-06-24T03:56:04;99257.03;;;20.38;67.88
62402;BME280;48440;51.224;22.506;2023-06-24T03:58:30;99257.66;;;20.34;68.06
62402;BME280;48440;51.224;22.506;2023-06-24T04:00:56;99254.28;;;20.38;67.99
62402;BME280;48440;51.224;22.506;2023-06-24T04:03:23;99255.09;;;20.38;67.66
62402;BME280;48440;51.224;22.506;2023-06-24T04:05:52;99254.16;;;20.43;67.88
62402;BME280;48440;51.224;22.506;2023-06-24T04:08:18;99249.13;;;20.45;67.40
62402;BME280;48440;51.224;22.506;2023-06-24T04:10:43;99261.59;;;20.42;67.26
62402;BME280;48440;51.224;22.506;2023-06-24T04:13:09;99265.16;;;20.43;67.40
62402;BME280;48440;51.224;22.506;2023-06-24T04:15:35;99265.31;;;20.38;67.12
62402;BME280;48440;51.224;22.506;2023-06-24T04:18:01;99264.78;;;20.36;66.93
62402;BME280;48440;51.224;22.506;2023-06-24T04:20:26;99270.13;;;20.32;67.34
62402;BME280;48440;51.224;22.506;2023-06-24T04:22:52;99272.06;;;20.31;67.18
62402;BME280;48440;51.224;22.506;2023-06-24T04:25:17;99265.75;;;20.31;67.65
62402;BME280;48440;51.224;22.506;2023-06-24T04:27:43;99268.06;;;20.38;67.23
62402;BME280;48440;51.224;22.506;2023-06-24T04:30:09;99274.25;;;20.43;67.34
62402;BME280;48440;51.224;22.506;2023-06-24T04:32:34;99269.06;;;20.42;67.28
62402;BME280;48440;51.224;22.506;2023-06-24T04:35:00;99280.88;;;20.42;66.64
62402;BME280;48440;51.224;22.506;2023-06-24T04:37:26;99280.44;;;20.57;66.98
62402;BME280;48440;51.224;22.506;2023-06-24T04:39:51;99285.34;;;20.69;66.34
62402;BME280;48440;51.224;22.506;2023-06-24T04:42:17;99292.47;;;20.87;66.12
62402;BME280;48440;51.224;22.506;2023-06-24T04:44:43;99297.06;;;21.00;65.88
62402;BME280;48440;51.224;22.506;2023-06-24T04:47:08;99289.56;;;21.10;65.62
62402;BME280;48440;51.224;22.506;2023-06-24T04:49:34;99293.69;;;21.21;65.52
62402;BME280;48440;51.224;22.506;2023-06-24T04:52:00;99294.63;;;21.42;64.66
62402;BME280;48440;51.224;22.506;2023-06-24T04:54:26;99305.97;;;21.58;63.92
62402;BME280;48440;51.224;22.506;2023-06-24T04:56:52;99306.13;;;21.61;64.17
62402;BME280;48440;51.224;22.506;2023-06-24T04:59:21;99312.66;;;21.48;63.94
62402;BME280;48440;51.224;22.506;2023-06-24T05:01:46;99320.59;;;21.32;63.55
62402;BME280;48440;51.224;22.506;2023-06-24T05:04:12;99314.41;;;21.18;64.80
62402;BME280;48440;51.224;22.506;2023-06-24T05:06:37;99307.44;;;21.12;65.35
62402;BME280;48440;51.224;22.506;2023-06-24T05:09:03;99307.75;;;21.11;65.04
62402;BME280;48440;51.224;22.506;2023-06-24T05:11:28;99318.63;;;21.16;65.35
62402;BME280;48440;51.224;22.506;2023-06-24T05:13:54;99317.19;;;21.18;65.11
62402;BME280;48440;51.224;22.506;2023-06-24T05:16:19;99319.16;;;21.26;64.91
62402;BME280;48440;51.224;22.506;2023-06-24T05:18:45;99319.16;;;21.26;65.02
62402;BME280;48440;51.224;22.506;2023-06-24T05:21:11;99323.84;;;21.34;64.77
62402;BME280;48440;51.224;22.506;2023-06-24T05:23:36;99321.56;;;21.37;64.82
62402;BME280;48440;51.224;22.506;2023-06-24T05:26:02;99323.38;;;21.41;64.54
62402;BME280;48440;51.224;22.506;2023-06-24T05:28:28;99325.78;;;21.60;64.49
62402;BME280;48440;51.224;22.506;2023-06-24T05:30:53;99325.25;;;21.84;63.81
62402;BME280;48440;51.224;22.506;2023-06-24T05:33:19;99310.88;;;22.16;62.48
62402;BME280;48440;51.224;22.506;2023-06-24T05:35:44;99308.06;;;22.33;62.05
62402;BME280;48440;51.224;22.506;2023-06-24T05:38:10;99313.38;;;22.39;61.87
62402;BME280;48440;51.224;22.506;2023-06-24T05:40:35;99308.38;;;22.61;61.55
62402;BME280;48440;51.224;22.506;2023-06-24T05:43:01;99317.50;;;22.91;60.46
62402;BME280;48440;51.224;22.506;2023-06-24T05:45:28;99310.25;;;23.28;59.79
62402;BME280;48440;51.224;22.506;2023-06-24T05:47:53;99316.75;;;23.65;58.43
62402;BME280;48440;51.224;22.506;2023-06-24T05:50:19;99310.25;;;23.94;56.75
62402;BME280;48440;51.224;22.506;2023-06-24T05:52:44;99315.16;;;24.10;56.53
62402;BME280;48440;51.224;22.506;2023-06-24T05:55:10;99314.22;;;24.06;56.46
62402;BME280;48440;51.224;22.506;2023-06-24T05:57:35;99311.19;;;23.98;56.55
62402;BME280;48440;51.224;22.506;2023-06-24T06:00:01;99322.84;;;23.92;56.43
62402;BME280;48440;51.224;22.506;2023-06-24T06:02:28;99325.66;;;23.71;56.87
62402;BME280;48440;51.224;22.506;2023-06-24T06:04:53;99333.00;;;23.55;56.63
62402;BME280;48440;51.224;22.506;2023-06-24T06:07:19;99332.22;;;23.46;57.29
62402;BME280;48440;51.224;22.506;2023-06-24T06:09:44;99332.19;;;23.33;57.46
62402;BME280;48440;51.224;22.506;2023-06-24T06:12:10;99337.78;;;23.25;58.24
62402;BME280;48440;51.224;22.506;2023-06-24T06:14:36;99343.31;;;23.25;58.64
62402;BME280;48440;51.224;22.506;2023-06-24T06:17:01;99336.63;;;23.26;58.53
62402;BME280;48440;51.224;22.506;2023-06-24T06:19:27;99346.16;;;23.37;58.42
62402;BME280;48440;51.224;22.506;2023-06-24T06:21:52;99343.78;;;23.68;57.52
62402;BME280;48440;51.224;22.506;2023-06-24T06:24:18;99334.44;;;24.18;57.63
62402;BME280;48440;51.224;22.506;2023-06-24T06:26:44;99326.41;;;24.50;56.44
62402;BME280;48440;51.224;22.506;2023-06-24T06:29:13;99329.91;;;24.59;55.65
62402;BME280;48440;51.224;22.506;2023-06-24T06:31:38;99317.75;;;24.88;54.46
62402;BME280;48440;51.224;22.506;2023-06-24T06:34:04;99323.56;;;25.23;54.14
62402;BME280;48440;51.224;22.506;2023-06-24T06:36:30;99335.16;;;25.53;53.17
62402;BME280;48440;51.224;22.506;2023-06-24T06:38:56;99335.91;;;25.78;52.37
62402;BME280;48440;51.224;22.506;2023-06-24T06:41:22;99333.97;;;25.94;51.95
62402;BME280;48440;51.224;22.506;2023-06-24T06:43:51;99325.91;;;26.04;51.24
62402;BME280;48440;51.224;22.506;2023-06-24T06:46:16;99322.25;;;26.16;51.04
62402;BME280;48440;51.224;22.506;2023-06-24T06:48:42;99318.50;;;26.24;49.80
62402;BME280;48440;51.224;22.506;2023-06-24T06:51:07;99317.41;;;26.29;50.25
62402;BME280;48440;51.224;22.506;2023-06-24T06:53:36;99322.00;;;26.37;49.62
62402;BME280;48440;51.224;22.506;2023-06-24T06:56:02;99318.34;;;26.49;49.03
62402;BME280;48440;51.224;22.506;2023-06-24T06:58:27;99312.25;;;26.43;49.21
62402;BME280;48440;51.224;22.506;2023-06-24T07:00:53;99309.34;;;26.24;49.21
62402;BME280;48440;51.224;22.506;2023-06-24T07:03:18;99313.66;;;26.21;49.07
62402;BME280;48440;51.224;22.506;2023-06-24T07:05:44;99321.50;;;26.03;49.58
62402;BME280;48440;51.224;22.506;2023-06-24T07:08:09;99321.69;;;26.11;49.96
62402;BME280;48440;51.224;22.506;2023-06-24T07:10:35;99319.22;;;26.21;49.40
62402;BME280;48440;51.224;22.506;2023-06-24T07:13:01;99317.25;;;26.38;49.50
62402;BME280;48440;51.224;22.506;2023-06-24T07:15:26;99323.69;;;26.57;48.77
62402;BME280;48440;51.224;22.506;2023-06-24T07:17:52;99335.84;;;26.49;48.93
62402;BME280;48440;51.224;22.506;2023-06-24T07:20:21;99338.59;;;26.65;48.85
62402;BME280;48440;51.224;22.506;2023-06-24T07:22:48;99332.53;;;26.94;48.77
62402;BME280;48440;51.224;22.506;2023-06-24T07:25:16;99332.50;;;27.10;48.50
62402;BME280;48440;51.224;22.506;2023-06-24T07:27:47;99327.47;;;27.16;47.29
62402;BME280;48440;51.224;22.506;2023-06-24T07:30:13;99330.28;;;27.35;47.06
62402;BME280;48440;51.224;22.506;2023-06-24T07:32:39;99323.91;;;27.54;47.08
62402;BME280;48440;51.224;22.506;2023-06-24T07:35:05;99328.25;;;27.70;46.31
62402;BME280;48440;51.224;22.506;2023-06-24T07:37:31;99318.53;;;27.84;45.43
62402;BME280;48440;51.224;22.506;2023-06-24T07:39:57;99332.34;;;27.77;45.19
62402;BME280;48440;51.224;22.506;2023-06-24T07:42:42;99339.97;;;27.41;46.00
62402;BME280;48440;51.224;22.506;2023-06-24T07:48:02;99345.06;;;27.20;47.31
62402;BME280;48440;51.224;22.506;2023-06-24T07:50:31;99346.84;;;27.28;46.65
62402;BME280;48440;51.224;22.506;2023-06-24T07:53:10;99353.44;;;27.20;46.88
62402;BME280;48440;51.224;22.506;2023-06-24T07:55:35;99352.16;;;26.98;46.80
62402;BME280;48440;51.224;22.506;2023-06-24T07:58:07;99359.69;;;26.97;47.31
62402;BME280;48440;51.224;22.506;2023-06-24T08:00:33;99374.97;;;27.23;47.47
62402;BME280;48440;51.224;22.506;2023-06-24T08:03:00;99369.34;;;27.38;46.96
62402;BME280;48440;51.224;22.506;2023-06-24T08:05:29;99374.47;;;27.36;46.42
62402;BME280;48440;51.224;22.506;2023-06-24T08:08:00;99369.50;;;27.26;47.23
62402;BME280;48440;51.224;22.506;2023-06-24T08:10:54;99377.78;;;27.42;46.65
62402;BME280;48440;51.224;22.506;2023-06-24T08:15:56;99381.22;;;27.55;45.95
62402;BME280;48440;51.224;22.506;2023-06-24T08:18:28;99372.97;;;27.58;45.02
62402;BME280;48440;51.224;22.506;2023-06-24T08:20:59;99380.44;;;27.54;45.30
62402;BME280;48440;51.224;22.506;2023-06-24T08:23:25;99391.69;;;27.58;44.54
62402;BME280;48440;51.224;22.506;2023-06-24T08:25:51;99384.91;;;27.40;44.68
62402;BME280;48440;51.224;22.506;2023-06-24T08:28:16;99390.44;;;27.20;45.28
62402;BME280;48440;51.224;22.506;2023-06-24T08:30:41;99390.41;;;27.01;45.53
62402;BME280;48440;51.224;22.506;2023-06-24T08:33:07;99391.09;;;26.82;45.58
62402;BME280;48440;51.224;22.506;2023-06-24T08:35:32;99391.13;;;26.66;45.33
62402;BME280;48440;51.224;22.506;2023-06-24T08:37:58;99394.31;;;26.53;46.51
62402;BME280;48440;51.224;22.506;2023-06-24T08:40:23;99389.78;;;26.45;46.66
62402;BME280;48440;51.224;22.506;2023-06-24T08:42:48;99403.03;;;26.35;46.26
62402;BME280;48440;51.224;22.506;2023-06-24T08:45:14;99396.06;;;26.29;46.21
62402;BME280;48440;51.224;22.506;2023-06-24T08:47:40;99397.53;;;26.23;46.05
62402;BME280;48440;51.224;22.506;2023-06-24T08:50:12;99397.78;;;26.18;45.90
62402;BME280;48440;51.224;22.506;2023-06-24T08:52:50;99395.25;;;26.13;45.70
62402;BME280;48440;51.224;22.506;2023-06-24T08:55:17;99394.34;;;26.09;45.76
62402;BME280;48440;51.224;22.506;2023-06-24T08:57:46;99403.28;;;26.02;46.64
62402;BME280;48440;51.224;22.506;2023-06-24T09:00:11;99403.69;;;26.17;46.58
62402;BME280;48440;51.224;22.506;2023-06-24T09:02:38;99397.81;;;26.34;46.89
62402;BME280;48440;51.224;22.506;2023-06-24T09:05:05;99395.59;;;26.40;45.44
62402;BME280;48440;51.224;22.506;2023-06-24T09:07:31;99391.28;;;26.42;44.31
62402;BME280;48440;51.224;22.506;2023-06-24T09:09:56;99385.19;;;26.36;44.57
62402;BME280;48440;51.224;22.506;2023-06-24T09:12:24;99391.00;;;26.31;43.76
62402;BME280;48440;51.224;22.506;2023-06-24T09:14:50;99383.00;;;26.30;43.75
62402;BME280;48440;51.224;22.506;2023-06-24T09:17:17;99382.88;;;26.26;43.78
62402;BME280;48440;51.224;22.506;2023-06-24T09:19:43;99381.25;;;26.25;43.75
62402;BME280;48440;51.224;22.506;2023-06-24T09:22:09;99386.75;;;26.22;44.54
62402;BME280;48440;51.224;22.506;2023-06-24T09:24:44;99387.47;;;26.19;44.34
62402;BME280;48440;51.224;22.506;2023-06-24T09:27:13;99385.03;;;26.17;44.43
62402;BME280;48440;51.224;22.506;2023-06-24T09:29:40;99375.44;;;26.15;43.56
62402;BME280;48440;51.224;22.506;2023-06-24T09:32:07;99375.69;;;26.10;43.12
62402;BME280;48440;51.224;22.506;2023-06-24T09:34:32;99381.06;;;26.02;43.67
62402;BME280;48440;51.224;22.506;2023-06-24T09:36:59;99379.38;;;25.98;43.93
62402;BME280;48440;51.224;22.506;2023-06-24T09:39:26;99393.16;;;25.94;44.69
62402;BME280;48440;51.224;22.506;2023-06-24T09:41:59;99384.47;;;25.96;45.55
62402;BME280;48440;51.224;22.506;2023-06-24T09:44:26;99380.16;;;25.98;45.24
62402;BME280;48440;51.224;22.506;2023-06-24T09:46:52;99391.72;;;26.00;45.40
62402;BME280;48440;51.224;22.506;2023-06-24T09:49:18;99396.91;;;26.02;45.36
62402;BME280;48440;51.224;22.506;2023-06-24T09:51:46;99392.06;;;25.99;45.19
62402;BME280;48440;51.224;22.506;2023-06-24T09:54:13;99399.97;;;25.97;44.62
62402;BME280;48440;51.224;22.506;2023-06-24T09:56:43;99408.22;;;25.93;44.69
62402;BME280;48440;51.224;22.506;2023-06-24T09:59:12;99404.19;;;25.91;44.11
62402;BME280;48440;51.224;22.506;2023-06-24T10:01:40;99416.00;;;25.88;43.81
62402;BME280;48440;51.224;22.506;2023-06-24T10:04:06;99417.50;;;25.85;43.53
62402;BME280;48440;51.224;22.506;2023-06-24T10:06:33;99421.00;;;25.82;44.38
62402;BME280;48440;51.224;22.506;2023-06-24T10:09:00;99419.38;;;25.81;45.06
62402;BME280;48440;51.224;22.506;2023-06-24T10:11:25;99414.97;;;25.80;45.22
62402;BME280;48440;51.224;22.506;2023-06-24T10:13:52;99414.34;;;25.71;45.44
62402;BME280;48440;51.224;22.506;2023-06-24T10:16:17;99413.06;;;25.68;46.34
62402;BME280;48440;51.224;22.506;2023-06-24T10:18:44;99416.19;;;25.67;46.91
62402;BME280;48440;51.224;22.506;2023-06-24T10:21:10;99410.63;;;25.67;46.86
62402;BME280;48440;51.224;22.506;2023-06-24T10:23:43;99414.69;;;25.69;47.00
62402;BME280;48440;51.224;22.506;2023-06-24T10:26:26;99418.63;;;25.68;46.56
62402;BME280;48440;51.224;22.506;2023-06-24T10:34:32;99417.22;;;25.62;46.04
62402;BME280;48440;51.224;22.506;2023-06-24T10:42:43;99405.47;;;25.81;45.03
62402;BME280;48440;51.224;22.506;2023-06-24T10:47:35;99411.47;;;25.95;43.97
62402;BME280;48440;51.224;22.506;2023-06-24T10:50:02;99413.97;;;26.00;43.44
62402;BME280;48440;51.224;22.506;2023-06-24T10:52:28;99417.66;;;26.04;43.51
62402;BME280;48440;51.224;22.506;2023-06-24T10:54:54;99412.19;;;26.08;43.84
62402;BME280;48440;51.224;22.506;2023-06-24T10:57:24;99415.31;;;26.07;42.68
62402;BME280;48440;51.224;22.506;2023-06-24T10:59:51;99410.47;;;26.03;43.35
62402;BME280;48440;51.224;22.506;2023-06-24T11:02:21;99409.31;;;26.04;42.76
62402;BME280;48440;51.224;22.506;2023-06-24T11:04:49;99415.69;;;26.05;42.49
62402;BME280;48440;51.224;22.506;2023-06-24T11:07:17;99415.69;;;26.05;42.31
62402;BME280;48440;51.224;22.506;2023-06-24T11:09:52;99412.91;;;26.05;42.57
62402;BME280;48440;51.224;22.506;2023-06-24T11:12:18;99413.34;;;26.07;41.95
62402;BME280;48440;51.224;22.506;2023-06-24T11:14:44;99423.56;;;26.03;42.00
62402;BME280;48440;51.224;22.506;2023-06-24T11:17:10;99416.03;;;26.03;42.43
62402;BME280;48440;51.224;22.506;2023-06-24T11:19:35;99424.03;;;26.05;42.50
62402;BME280;48440;51.224;22.506;2023-06-24T11:22:05;99419.44;;;25.97;43.46
62402;BME280;48440;51.224;22.506;2023-06-24T11:24:31;99420.25;;;25.97;44.32
62402;BME280;48440;51.224;22.506;2023-06-24T11:26:57;99417.53;;;26.01;43.84
62402;BME280;48440;51.224;22.506;2023-06-24T11:29:23;99410.81;;;26.02;44.25
62402;BME280;48440;51.224;22.506;2023-06-24T11:31:49;99411.97;;;26.01;43.31
62402;BME280;48440;51.224;22.506;2023-06-24T11:34:15;99414.50;;;26.06;43.60
62402;BME280;48440;51.224;22.506;2023-06-24T11:36:41;99410.13;;;26.05;42.98
62402;BME280;48440;51.224;22.506;2023-06-24T11:39:07;99419.72;;;26.08;43.04
62402;BME280;48440;51.224;22.506;2023-06-24T11:41:32;99408.41;;;26.00;42.92
62402;BME280;48440;51.224;22.506;2023-06-24T11:43:58;99413.88;;;25.97;42.80
62402;BME280;48440;51.224;22.506;2023-06-24T11:46:29;99412.25;;;25.96;42.82
62402;BME280;48440;51.224;22.506;2023-06-24T11:49:08;99408.31;;;25.97;42.70
62402;BME280;48440;51.224;22.506;2023-06-24T11:51:35;99408.31;;;25.97;42.67
62402;BME280;48440;51.224;22.506;2023-06-24T11:54:04;99412.25;;;25.96;42.37
62402;BME280;48440;51.224;22.506;2023-06-24T11:56:53;99408.94;;;25.90;43.13
62402;BME280;48440;51.224;22.506;2023-06-24T11:59:23;99407.56;;;25.84;43.26
62402;BME280;48440;51.224;22.506;2023-06-24T12:01:56;99406.81;;;25.72;43.46
62402;BME280;48440;51.224;22.506;2023-06-24T12:04:27;99410.03;;;25.61;44.75
62402;BME280;48440;51.224;22.506;2023-06-24T12:06:54;99401.03;;;25.52;44.45
62402;BME280;48440;51.224;22.506;2023-06-24T12:09:20;99405.22;;;25.46;44.89
62402;BME280;48440;51.224;22.506;2023-06-24T12:11:45;99411.94;;;25.45;44.97
62402;BME280;48440;51.224;22.506;2023-06-24T12:14:11;99402.34;;;25.43;45.63
62402;BME280;48440;51.224;22.506;2023-06-24T12:16:38;99397.84;;;25.38;45.81
62402;BME280;48440;51.224;22.506;2023-06-24T12:19:03;99396.31;;;25.41;46.18
62402;BME280;48440;51.224;22.506;2023-06-24T12:21:29;99403.16;;;25.43;47.40
62402;BME280;48440;51.224;22.506;2023-06-24T12:23:54;99399.28;;;25.48;47.77
62402;BME280;48440;51.224;22.506;2023-06-24T12:26:19;99405.78;;;25.52;48.18
62402;BME280;48440;51.224;22.506;2023-06-24T12:28:45;99396.84;;;25.58;48.07
62402;BME280;48440;51.224;22.506;2023-06-24T12:31:11;99402.84;;;25.60;47.96
62402;BME280;48440;51.224;22.506;2023-06-24T12:33:36;99397.44;;;25.64;48.44
62402;BME280;48440;51.224;22.506;2023-06-24T12:36:02;99397.44;;;25.64;48.56
62402;BME280;48440;51.224;22.506;2023-06-24T12:38:27;99398.72;;;25.66;48.20
62402;BME280;48440;51.224;22.506;2023-06-24T12:40:53;99395.22;;;25.69;47.98
62402;BME280;48440;51.224;22.506;2023-06-24T12:43:18;99391.81;;;25.76;48.00
62402;BME280;48440;51.224;22.506;2023-06-24T12:45:44;99396.09;;;25.86;47.42
62402;BME280;48440;51.224;22.506;2023-06-24T12:48:10;99401.16;;;25.96;46.56
62402;BME280;48440;51.224;22.506;2023-06-24T12:50:36;99398.53;;;26.03;46.75
62402;BME280;48440;51.224;22.506;2023-06-24T12:53:01;99405.38;;;26.06;45.78
62402;BME280;48440;51.224;22.506;2023-06-24T12:55:28;99403.50;;;26.10;45.33
62402;BME280;48440;51.224;22.506;2023-06-24T12:57:54;99408.59;;;26.08;44.92
62402;BME280;48440;51.224;22.506;2023-06-24T13:00:20;99402.94;;;26.04;44.58
62402;BME280;48440;51.224;22.506;2023-06-24T13:02:46;99405.00;;;26.07;45.01
62402;BME280;48440;51.224;22.506;2023-06-24T13:05:12;99390.66;;;26.05;45.52
62402;BME280;48440;51.224;22.506;2023-06-24T13:07:38;99399.09;;;26.09;45.15
62402;BME280;48440;51.224;22.506;2023-06-24T13:10:03;99400.63;;;26.06;44.63
62402;BME280;48440;51.224;22.506;2023-06-24T13:12:31;99401.94;;;25.96;43.84
62402;BME280;48440;51.224;22.506;2023-06-24T13:14:58;99404.19;;;25.91;44.30
62402;BME280;48440;51.224;22.506;2023-06-24T13:17:24;99411.34;;;25.92;44.28
62402;BME280;48440;51.224;22.506;2023-06-24T13:19:50;99408.81;;;25.87;44.58